Time;durP1;ratioP1;P1;durP2;ratioP2;P2;SDS_P1;SDS_P2;PMS_P1;PMS_P2;Temp;Humidity;BMP_temperature;BMP_pressure;BME280_temperature;BME280_humidity;BME280_pressure;Samples;Min_cycle;Max_cycle;Signal;HPM_P1;HPM_P2
2023/01/13 00:00:43;;;;;;;3.88;1.05;;;;;;;;;;5016646;28;20038;-83
2023/01/13 00:03:08;;;;;;;3.67;1.10;;;;;;;;;;5011884;28;20037;-83
2023/01/13 00:05:34;;;;;;;9.27;1.20;;;;;;;;;;5027413;28;20048;-84
2023/01/13 00:07:59;;;;;;;3.95;0.73;;;;;;;;;;5027954;28;20103;-83
2023/01/13 00:10:24;;;;;;;0.70;0.50;;;;;;;;;;5027736;28;20594;-83
2023/01/13 00:12:50;;;;;;;3.15;0.75;;;;;;;;;;5027491;28;20045;-83
2023/01/13 00:15:15;;;;;;;6.10;0.88;;;;;;;;;;5026795;28;20041;-83
2023/01/13 00:17:40;;;;;;;1.60;0.57;;;;;;;;;;5025312;28;20049;-83
2023/01/13 00:20:06;;;;;;;5.45;0.98;;;;;;;;;;5029482;28;20029;-84
2023/01/13 00:22:33;;;;;;;5.57;0.95;;;;;;;;;;5031375;28;20034;-84
2023/01/13 00:25:00;;;;;;;7.22;0.80;;;;;;;;;;5035153;28;20108;-84
2023/01/13 00:27:26;;;;;;;2.60;0.77;;;;;;;;;;5030816;28;20030;-84
2023/01/13 00:29:51;;;;;;;5.13;0.82;;;;;;;;;;5022571;28;20044;-84
2023/01/13 00:32:16;;;;;;;3.50;0.65;;;;;;;;;;5026597;28;20079;-83
2023/01/13 00:34:42;;;;;;;5.65;0.90;;;;;;;;;;5028251;28;20041;-84
2023/01/13 00:37:11;;;;;;;4.35;1.00;;;;;;;;;;5029599;28;20469;-83
2023/01/13 00:39:37;;;;;;;4.82;1.10;;;;;;;;;;5020542;28;20475;-83
2023/01/13 00:44:46;;;;;;;3.30;1.10;;;;;;;;;;5029060;28;20056;-83
2023/01/13 00:47:11;;;;;;;4.78;1.00;;;;;;;;;;5027203;28;20029;-84
2023/01/13 00:49:37;;;;;;;4.15;0.70;;;;;;;;;;5026572;28;20144;-83
2023/01/13 00:52:02;;;;;;;4.93;0.73;;;;;;;;;;5026890;28;20056;-83
2023/01/13 00:54:27;;;;;;;7.10;0.90;;;;;;;;;;5027901;28;20616;-83
2023/01/13 00:56:53;;;;;;;7.15;1.23;;;;;;;;;;5028130;28;20033;-83
2023/01/13 00:59:18;;;;;;;5.70;0.95;;;;;;;;;;5028634;28;20025;-83
2023/01/13 01:01:43;;;;;;;4.28;1.00;;;;;;;;;;5023165;28;20046;-84
2023/01/13 01:04:09;;;;;;;10.68;0.88;;;;;;;;;;5024554;28;20075;-83
2023/01/13 01:06:35;;;;;;;7.68;1.40;;;;;;;;;;5025874;28;20625;-84
2023/01/13 01:09:00;;;;;;;2.97;0.70;;;;;;;;;;5026712;28;20037;-83
2023/01/13 01:11:28;;;;;;;2.22;0.75;;;;;;;;;;5026706;28;20717;-83
2023/01/13 01:13:56;;;;;;;2.60;0.88;;;;;;;;;;5017236;28;20026;-83
2023/01/13 01:16:23;;;;;;;3.13;1.00;;;;;;;;;;5010086;28;20117;-83
2023/01/13 01:18:52;;;;;;;3.05;0.75;;;;;;;;;;5009877;28;20068;-84
2023/01/13 01:21:18;;;;;;;5.35;0.80;;;;;;;;;;5010243;28;20096;-83
2023/01/13 01:23:43;;;;;;;3.47;0.90;;;;;;;;;;5010547;28;20033;-83
2023/01/13 01:26:15;;;;;;;5.85;0.98;;;;;;;;;;5008307;28;20032;-84
2023/01/13 01:28:42;;;;;;;12.63;1.38;;;;;;;;;;4998383;28;20148;-84
2023/01/13 01:31:10;;;;;;;5.15;0.60;;;;;;;;;;4990738;28;20030;-83
2023/01/13 01:33:35;;;;;;;2.83;0.70;;;;;;;;;;5000097;28;20041;-83
2023/01/13 01:36:01;;;;;;;3.55;0.90;;;;;;;;;;5009707;28;20034;-84
2023/01/13 01:38:27;;;;;;;6.05;1.00;;;;;;;;;;5010183;28;20033;-84
2023/01/13 01:40:52;;;;;;;5.55;1.23;;;;;;;;;;5009776;28;20025;-84
2023/01/13 01:46:37;;;;;;;8.13;1.13;;;;;;;;;;5004903;28;20033;-84
2023/01/13 01:49:33;;;;;;;4.35;1.15;;;;;;;;;;4988816;28;20034;-84
2023/01/13 01:52:03;;;;;;;1.65;0.63;;;;;;;;;;5008407;28;20229;-83
2023/01/13 01:54:38;;;;;;;6.75;1.00;;;;;;;;;;4990337;28;20116;-83
2023/01/13 01:57:06;;;;;;;4.80;1.10;;;;;;;;;;4997533;28;20458;-84
2023/01/13 01:59:34;;;;;;;6.70;1.08;;;;;;;;;;5006829;28;20079;-83
2023/01/13 02:02:00;;;;;;;7.13;1.30;;;;;;;;;;5009504;28;20773;-84
2023/01/13 02:04:35;;;;;;;4.93;0.80;;;;;;;;;;4994833;28;20523;-83
2023/01/13 02:07:01;;;;;;;11.70;1.48;;;;;;;;;;5007851;28;20091;-84
2023/01/13 02:09:26;;;;;;;9.15;1.10;;;;;;;;;;5009298;28;20033;-84
2023/01/13 02:14:36;;;;;;;;;;;;;;;;;;5027313;28;20175;-84
2023/01/13 02:17:24;;;;;;;8.30;1.10;;;;;;;;;;5014659;28;20461;-83
2023/01/13 02:20:11;;;;;;;3.28;0.90;;;;;;;;;;5014672;28;20033;-83
2023/01/13 02:22:43;;;;;;;4.63;1.05;;;;;;;;;;5045378;28;20041;-83
2023/01/13 02:25:32;;;;;;;6.07;1.30;;;;;;;;;;5046601;28;20037;-84
2023/01/13 02:28:11;;;;;;;5.30;0.98;;;;;;;;;;5043566;28;20037;-84
2023/01/13 02:33:51;;;;;;;11.63;1.60;;;;;;;;;;5047348;28;20158;-83
2023/01/13 02:36:31;;;;;;;5.80;0.98;;;;;;;;;;5045014;28;20082;-83
2023/01/13 02:39:12;;;;;;;6.00;1.30;;;;;;;;;;5048853;28;20128;-84
2023/01/13 02:44:51;;;;;;;9.75;0.85;;;;;;;;;;5050102;28;20059;-83
2023/01/13 02:47:27;;;;;;;3.55;1.08;;;;;;;;;;5049249;28;20029;-84
2023/01/13 02:50:00;;;;;;;9.23;1.30;;;;;;;;;;5029255;28;20033;-83
2023/01/13 02:52:26;;;;;;;;;;;;;;;;;;5046118;28;20120;-83
2023/01/13 02:54:56;;;;;;;7.10;1.70;;;;;;;;;;5049090;28;20050;-83
2023/01/13 02:57:23;;;;;;;7.97;1.15;;;;;;;;;;5048637;28;20610;-83
2023/01/13 02:59:51;;;;;;;4.78;1.02;;;;;;;;;;5046991;28;20037;-83
2023/01/13 03:02:20;;;;;;;6.75;1.55;;;;;;;;;;5048669;28;20520;-83
2023/01/13 03:04:53;;;;;;;10.43;1.25;;;;;;;;;;5031981;28;20044;-83
2023/01/13 03:07:39;;;;;;;8.55;1.15;;;;;;;;;;5014041;28;20041;-83
2023/01/13 03:10:30;;;;;;;3.45;1.40;;;;;;;;;;5008346;28;20044;-83
2023/01/13 03:13:07;;;;;;;4.55;1.13;;;;;;;;;;5010763;28;20088;-83
2023/01/13 03:15:58;;;;;;;6.47;1.13;;;;;;;;;;5008715;28;20096;-83
2023/01/13 03:18:37;;;;;;;6.25;1.02;;;;;;;;;;5003466;28;20164;-83
2023/01/13 03:21:06;;;;;;;2.28;1.05;;;;;;;;;;5007962;28;20042;-83
2023/01/13 03:23:59;;;;;;;7.93;1.30;;;;;;;;;;5008918;28;20160;-84
2023/01/13 03:26:32;;;;;;;4.87;1.10;;;;;;;;;;5008554;28;20014;-83
2023/01/13 03:29:07;;;;;;;3.22;1.13;;;;;;;;;;5023966;28;20692;-83
2023/01/13 03:31:36;;;;;;;6.10;1.13;;;;;;;;;;5029593;28;20617;-83
2023/01/13 03:34:24;;;;;;;7.68;1.10;;;;;;;;;;5029585;28;20034;-83
2023/01/13 03:36:54;;;;;;;4.70;1.08;;;;;;;;;;5027354;28;20045;-82
2023/01/13 03:39:25;;;;;;;3.25;0.93;;;;;;;;;;5045969;28;20050;-83
2023/01/13 03:41:56;;;;;;;9.65;2.30;;;;;;;;;;5051381;28;20036;-83
2023/01/13 03:44:31;;;;;;;4.78;1.77;;;;;;;;;;5069042;28;20052;-82
2023/01/13 03:47:21;;;;;;;4.82;1.25;;;;;;;;;;5068581;28;20028;-83
2023/01/13 03:49:59;;;;;;;3.90;1.33;;;;;;;;;;5050151;28;20052;-83
2023/01/13 03:52:29;;;;;;;5.75;1.30;;;;;;;;;;5027993;28;20447;-83
2023/01/13 03:54:59;;;;;;;5.47;1.25;;;;;;;;;;5029211;28;20061;-83
2023/01/13 03:57:30;;;;;;;1.98;0.85;;;;;;;;;;5043930;28;20037;-83
2023/01/13 03:59:58;;;;;;;6.07;1.45;;;;;;;;;;5028131;28;20562;-83
2023/01/13 04:02:55;;;;;;;2.85;1.00;;;;;;;;;;5027683;28;20026;-83
2023/01/13 04:05:21;;;;;;;8.68;1.60;;;;;;;;;;5027502;28;20064;-83
2023/01/13 04:08:06;;;;;;;8.07;1.30;;;;;;;;;;5027688;28;20669;-83
2023/01/13 04:10:38;;;;;;;5.00;1.27;;;;;;;;;;5029565;28;20161;-83
2023/01/13 04:13:09;;;;;;;5.82;1.52;;;;;;;;;;5028525;28;20134;-83
2023/01/13 04:15:38;;;;;;;6.85;1.45;;;;;;;;;;5055332;28;20418;-83
2023/01/13 04:18:12;;;;;;;4.63;1.25;;;;;;;;;;5032072;28;20037;-83
2023/01/13 04:20:38;;;;;;;8.45;1.70;;;;;;;;;;5028452;28;20035;-81
2023/01/13 04:23:05;;;;;;;3.95;0.80;;;;;;;;;;5029064;28;20022;-83
2023/01/13 04:25:30;;;;;;;8.80;1.40;;;;;;;;;;5032365;28;20036;-82
2023/01/13 04:27:55;;;;;;;5.22;0.90;;;;;;;;;;5022814;28;20125;-82
2023/01/13 04:30:21;;;;;;;3.97;0.80;;;;;;;;;;4983492;28;20053;-82
2023/01/13 04:32:46;;;;;;;6.15;1.30;;;;;;;;;;4989690;28;20530;-83
2023/01/13 04:35:11;;;;;;;6.78;1.15;;;;;;;;;;4972802;28;20073;-83
2023/01/13 04:37:37;;;;;;;5.68;1.00;;;;;;;;;;4989045;28;20405;-82
2023/01/13 04:40:02;;;;;;;1.70;0.52;;;;;;;;;;4989274;28;20054;-83
2023/01/13 04:42:28;;;;;;;2.25;1.02;;;;;;;;;;4971291;28;20637;-83
2023/01/13 04:44:53;;;;;;;4.72;1.20;;;;;;;;;;4989256;28;20664;-83
2023/01/13 04:47:19;;;;;;;2.78;0.60;;;;;;;;;;4971710;28;20033;-83
2023/01/13 04:49:44;;;;;;;4.97;1.10;;;;;;;;;;4970980;28;20668;-83
2023/01/13 04:52:09;;;;;;;2.08;0.98;;;;;;;;;;4988809;28;20234;-82
2023/01/13 04:54:34;;;;;;;5.78;1.00;;;;;;;;;;4971277;28;20542;-82
2023/01/13 04:57:00;;;;;;;2.10;1.00;;;;;;;;;;4988833;28;20578;-82
2023/01/13 04:59:25;;;;;;;4.18;0.98;;;;;;;;;;4988423;28;20089;-83
2023/01/13 05:01:50;;;;;;;3.55;1.10;;;;;;;;;;4986433;28;20053;-82
2023/01/13 05:04:16;;;;;;;3.78;1.50;;;;;;;;;;4984782;28;20045;-83
2023/01/13 05:06:41;;;;;;;6.95;1.88;;;;;;;;;;4990461;28;20042;-84
2023/01/13 05:09:07;;;;;;;2.72;1.00;;;;;;;;;;5007259;28;20034;-83
2023/01/13 05:17:00;;;;;;;4.10;1.35;;;;;;;;;;5028084;28;19928;-83
2023/01/13 05:19:27;;;;;;;7.75;1.23;;;;;;;;;;5011119;28;20042;-83
2023/01/13 05:27:20;;;;;;;;;;;;;;;;;;5008363;28;20621;-82
2023/01/13 05:29:45;;;;;;;8.93;1.73;;;;;;;;;;5004331;28;20402;-83
2023/01/13 05:32:10;;;;;;;6.07;1.20;;;;;;;;;;4970724;28;20022;-82
2023/01/13 05:34:36;;;;;;;16.08;1.95;;;;;;;;;;4988064;28;20209;-83
2023/01/13 05:37:02;;;;;;;9.75;1.60;;;;;;;;;;4973276;28;20041;-83
2023/01/13 05:43:18;;;;;;;8.75;1.50;;;;;;;;;;4997090;28;20596;-82
2023/01/13 05:44:56;;;;;;;;;;;;;;;;;;5027074;28;20040;-82
2023/01/13 05:47:21;;;;;;;11.52;1.23;;;;;;;;;;5018804;28;19913;-82
2023/01/13 05:49:47;;;;;;;12.73;1.80;;;;;;;;;;5006310;28;20033;-83
2023/01/13 05:52:12;;;;;;;4.10;1.30;;;;;;;;;;5009111;28;20502;-83
2023/01/13 05:54:39;;;;;;;10.63;1.55;;;;;;;;;;5025507;28;20033;-83
2023/01/13 05:57:05;;;;;;;12.57;1.80;;;;;;;;;;5026506;28;20102;-83
2023/01/13 05:59:30;;;;;;;12.68;3.17;;;;;;;;;;5027299;28;20025;-83
2023/01/13 06:01:55;;;;;;;8.40;1.95;;;;;;;;;;5027275;28;20049;-82
2023/01/13 06:04:21;;;;;;;13.55;1.88;;;;;;;;;;5026291;28;20033;-83
2023/01/13 06:06:47;;;;;;;8.48;1.70;;;;;;;;;;5026818;28;20559;-83
2023/01/13 06:09:13;;;;;;;8.20;1.70;;;;;;;;;;5008752;28;20490;-83
2023/01/13 06:11:38;;;;;;;13.13;1.85;;;;;;;;;;5008660;28;20018;-83
2023/01/13 06:14:03;;;;;;;14.07;1.65;;;;;;;;;;5013049;28;20494;-83
2023/01/13 06:16:29;;;;;;;11.52;1.63;;;;;;;;;;5015710;28;20045;-83
2023/01/13 06:18:54;;;;;;;9.05;1.42;;;;;;;;;;5049904;28;20037;-83
2023/01/13 06:21:19;;;;;;;11.57;2.10;;;;;;;;;;5050017;28;20522;-82
2023/01/13 06:23:45;;;;;;;18.50;1.98;;;;;;;;;;5048727;28;20036;-82
2023/01/13 06:26:16;;;;;;;8.75;1.77;;;;;;;;;;5050744;28;20048;-83
2023/01/13 06:28:41;;;;;;;9.40;1.88;;;;;;;;;;5049846;28;20044;-83
2023/01/13 06:31:09;;;;;;;10.57;1.33;;;;;;;;;;5032134;28;20030;-82
2023/01/13 06:33:56;;;;;;;9.88;1.67;;;;;;;;;;5030018;28;20119;-81
2023/01/13 06:36:26;;;;;;;9.80;1.10;;;;;;;;;;5028758;28;20044;-81
2023/01/13 06:38:55;;;;;;;15.25;1.52;;;;;;;;;;5029360;28;20457;-82
2023/01/13 06:43:13;;;;;;;4.75;1.00;;;;;;;;;;5029579;28;20172;-81
2023/01/13 06:44:06;;;;;;;10.18;1.75;;;;;;;;;;5029899;28;20102;-80
2023/01/13 06:46:31;;;;;;;10.18;1.90;;;;;;;;;;5010705;28;20041;-81
2023/01/13 06:48:57;;;;;;;13.55;1.98;;;;;;;;;;5011184;28;20061;-81
2023/01/13 06:51:22;;;;;;;5.00;1.23;;;;;;;;;;5016693;28;20026;-81
2023/01/13 06:53:47;;;;;;;16.40;2.45;;;;;;;;;;5028466;28;20033;-81
2023/01/13 06:56:13;;;;;;;10.88;1.80;;;;;;;;;;5029971;28;20152;-80
2023/01/13 06:58:38;;;;;;;9.25;1.40;;;;;;;;;;5029054;28;20651;-81
2023/01/13 07:01:03;;;;;;;9.15;1.27;;;;;;;;;;5023179;28;20196;-81
2023/01/13 07:03:28;;;;;;;7.80;1.38;;;;;;;;;;5015475;28;20413;-81
2023/01/13 07:05:55;;;;;;;7.25;1.48;;;;;;;;;;5018878;28;20034;-81
2023/01/13 07:08:21;;;;;;;8.55;1.40;;;;;;;;;;5014522;28;20040;-81
2023/01/13 07:10:46;;;;;;;10.60;1.20;;;;;;;;;;5028596;28;20080;-81
2023/01/13 07:15:59;;;;;;;7.97;1.30;;;;;;;;;;5029773;28;20056;-80
2023/01/13 07:18:30;;;;;;;7.38;1.27;;;;;;;;;;5030032;28;20128;-81
2023/01/13 07:20:57;;;;;;;15.35;1.70;;;;;;;;;;5027806;28;20627;-81
2023/01/13 07:23:24;;;;;;;8.48;1.42;;;;;;;;;;5028831;28;20036;-81
2023/01/13 07:25:49;;;;;;;8.27;2.20;;;;;;;;;;5028162;28;20395;-81
2023/01/13 07:28:15;;;;;;;5.97;1.20;;;;;;;;;;5028063;28;20044;-80
2023/01/13 07:30:40;;;;;;;10.45;1.50;;;;;;;;;;5027384;28;20112;-81
2023/01/13 07:33:06;;;;;;;12.85;1.80;;;;;;;;;;5028089;28;20029;-81
2023/01/13 07:35:31;;;;;;;7.50;1.52;;;;;;;;;;5021936;28;20124;-81
2023/01/13 07:37:56;;;;;;;7.90;1.45;;;;;;;;;;5026387;28;20022;-81
2023/01/13 07:40:21;;;;;;;11.98;1.58;;;;;;;;;;5027869;28;20037;-81
2023/01/13 07:45:31;;;;;;;7.85;1.33;;;;;;;;;;5029305;28;20040;-81
2023/01/13 07:47:56;;;;;;;6.22;1.42;;;;;;;;;;5023413;28;20030;-81
2023/01/13 07:50:22;;;;;;;12.00;2.13;;;;;;;;;;5015113;28;20060;-81
2023/01/13 07:52:48;;;;;;;12.85;1.77;;;;;;;;;;5006325;28;20021;-81
2023/01/13 07:55:13;;;;;;;8.45;1.60;;;;;;;;;;5013107;28;20108;-80
2023/01/13 07:57:39;;;;;;;15.52;2.65;;;;;;;;;;5024852;28;20057;-81
2023/01/13 08:00:05;;;;;;;12.50;2.00;;;;;;;;;;5027663;28;20064;-81
2023/01/13 08:02:30;;;;;;;14.90;1.95;;;;;;;;;;5026921;28;20599;-80
2023/01/13 08:04:56;;;;;;;12.15;1.98;;;;;;;;;;5015708;28;20041;-81
2023/01/13 08:07:22;;;;;;;14.68;2.58;;;;;;;;;;5025414;28;20728;-81
2023/01/13 08:09:47;;;;;;;13.07;2.38;;;;;;;;;;5033028;28;20502;-80
2023/01/13 08:14:56;;;;;;;8.60;1.65;;;;;;;;;;5028018;28;20036;-81
2023/01/13 08:17:21;;;;;;;7.75;1.38;;;;;;;;;;5023797;28;20041;-81
2023/01/13 08:19:47;;;;;;;10.13;1.35;;;;;;;;;;5027917;28;20457;-81
2023/01/13 08:22:12;;;;;;;10.60;1.90;;;;;;;;;;5026314;28;20044;-81
2023/01/13 08:24:37;;;;;;;11.07;1.58;;;;;;;;;;5040126;28;20038;-80
2023/01/13 08:27:03;;;;;;;5.55;1.20;;;;;;;;;;5037128;28;20764;-80
2023/01/13 08:29:28;;;;;;;8.55;1.30;;;;;;;;;;5042691;28;20017;-80
2023/01/13 08:31:53;;;;;;;7.80;1.35;;;;;;;;;;5037635;28;20012;-80
2023/01/13 08:34:18;;;;;;;9.18;1.85;;;;;;;;;;5028209;28;20041;-79
2023/01/13 08:36:44;;;;;;;13.95;1.73;;;;;;;;;;5031511;28;20067;-80
2023/01/13 08:39:09;;;;;;;12.93;1.70;;;;;;;;;;5030991;28;20052;-78
2023/01/13 08:44:18;;;;;;;7.63;1.70;;;;;;;;;;5017299;28;20035;-79
2023/01/13 08:46:43;;;;;;;18.27;1.95;;;;;;;;;;5042437;28;20131;-79
2023/01/13 08:49:09;;;;;;;9.90;1.67;;;;;;;;;;5045288;28;20033;-79
2023/01/13 08:51:34;;;;;;;10.13;1.60;;;;;;;;;;5046064;28;20025;-79
2023/01/13 08:54:00;;;;;;;7.35;2.20;;;;;;;;;;5039784;28;20065;-79
2023/01/13 08:56:28;;;;;;;20.40;2.38;;;;;;;;;;5021651;28;20716;-79
2023/01/13 08:58:59;;;;;;;11.07;1.60;;;;;;;;;;5016672;28;20017;-79
2023/01/13 09:01:25;;;;;;;10.48;1.73;;;;;;;;;;5026572;28;20037;-79
2023/01/13 09:03:50;;;;;;;10.35;1.67;;;;;;;;;;5024782;28;20461;-79
2023/01/13 09:06:16;;;;;;;14.00;1.70;;;;;;;;;;5025352;28;20053;-80
2023/01/13 09:08:41;;;;;;;8.88;1.63;;;;;;;;;;5026610;28;20033;-79
2023/01/13 09:14:17;;;;;;;5.25;1.58;;;;;;;;;;4999239;28;20049;-79
2023/01/13 09:16:42;;;;;;;9.00;1.92;;;;;;;;;;5021695;28;20053;-79
2023/01/13 09:19:08;;;;;;;8.43;1.17;;;;;;;;;;5026806;28;20430;-79
2023/01/13 09:21:34;;;;;;;14.40;1.92;;;;;;;;;;5024243;28;20065;-79
2023/01/13 09:23:59;;;;;;;11.65;1.63;;;;;;;;;;5025217;28;20053;-78
2023/01/13 09:26:25;;;;;;;11.93;1.48;;;;;;;;;;5024753;28;20120;-79
2023/01/13 09:28:50;;;;;;;5.18;1.27;;;;;;;;;;5025029;28;20037;-79
2023/01/13 09:31:15;;;;;;;9.50;1.88;;;;;;;;;;5026390;28;20113;-79
2023/01/13 09:36:24;;;;;;;;;;;;;;;;;;5023496;28;20049;-79
2023/01/13 09:38:49;;;;;;;10.77;1.77;;;;;;;;;;5026742;28;19916;-80
2023/01/13 09:44:10;;;;;;;6.35;1.63;;;;;;;;;;5046207;28;20107;-81
2023/01/13 09:46:42;;;;;;;11.77;1.75;;;;;;;;;;5026223;28;20519;-81
2023/01/13 09:49:21;;;;;;;10.55;1.88;;;;;;;;;;5024730;28;20100;-81
2023/01/13 09:51:57;;;;;;;6.38;1.10;;;;;;;;;;5024403;28;20026;-80
2023/01/13 09:54:42;;;;;;;7.53;1.17;;;;;;;;;;5025149;28;20049;-81
2023/01/13 09:57:13;;;;;;;11.50;2.17;;;;;;;;;;5024198;28;20044;-80
2023/01/13 09:59:39;;;;;;;5.97;1.40;;;;;;;;;;5019612;28;20045;-81
2023/01/13 10:02:42;;;;;;;11.07;1.27;;;;;;;;;;5013632;28;20048;-81
2023/01/13 10:05:22;;;;;;;9.60;1.45;;;;;;;;;;5045095;28;20498;-81
2023/01/13 10:07:56;;;;;;;12.18;2.92;;;;;;;;;;5034217;28;20045;-81
2023/01/13 10:10:40;;;;;;;6.65;1.33;;;;;;;;;;5029161;28;20045;-80
2023/01/13 10:13:28;;;;;;;13.40;1.75;;;;;;;;;;5028750;28;20589;-81
2023/01/13 10:15:56;;;;;;;11.45;2.05;;;;;;;;;;5027330;28;20072;-81
2023/01/13 10:18:31;;;;;;;9.13;2.35;;;;;;;;;;5024194;28;20107;-82
2023/01/13 10:21:15;;;;;;;13.77;1.50;;;;;;;;;;5018984;28;20064;-82
2023/01/13 10:24:11;;;;;;;15.35;2.47;;;;;;;;;;5006235;28;20037;-83
2023/01/13 10:26:36;;;;;;;9.35;1.92;;;;;;;;;;5016916;28;20503;-83
2023/01/13 10:29:02;;;;;;;11.88;2.00;;;;;;;;;;5008239;28;20025;-81
2023/01/13 10:31:27;;;;;;;14.43;1.65;;;;;;;;;;5011163;28;20150;-80
2023/01/13 10:34:02;;;;;;;9.52;1.80;;;;;;;;;;4994292;28;20030;-81
2023/01/13 10:36:28;;;;;;;17.70;2.38;;;;;;;;;;5014259;28;20045;-80
2023/01/13 10:39:07;;;;;;;6.95;1.30;;;;;;;;;;5002226;28;20523;-82
2023/01/13 10:41:34;;;;;;;14.43;2.65;;;;;;;;;;5001743;28;20030;-81
2023/01/13 10:44:04;;;;;;;11.50;2.60;;;;;;;;;;4985739;28;20081;-82
2023/01/13 10:46:32;;;;;;;10.00;2.10;;;;;;;;;;4990993;28;20121;-80
2023/01/13 10:49:00;;;;;;;12.77;2.20;;;;;;;;;;5004380;28;20066;-81
2023/01/13 10:51:42;;;;;;;15.90;2.20;;;;;;;;;;4982699;28;20026;-82
2023/01/13 10:54:10;;;;;;;15.35;2.17;;;;;;;;;;4994938;28;20037;-81
2023/01/13 10:56:36;;;;;;;10.88;2.30;;;;;;;;;;4996317;28;20081;-81
2023/01/13 10:59:17;;;;;;;13.80;2.22;;;;;;;;;;4986435;28;20034;-81
2023/01/13 11:01:57;;;;;;;12.77;1.85;;;;;;;;;;4989005;28;20034;-82
2023/01/13 11:04:39;;;;;;;13.38;2.33;;;;;;;;;;4995591;28;20049;-81
2023/01/13 11:07:19;;;;;;;8.65;1.42;;;;;;;;;;5016986;28;20112;-82
2023/01/13 11:09:45;;;;;;;12.23;1.88;;;;;;;;;;5028324;28;20457;-81
2023/01/13 11:12:31;;;;;;;11.05;1.58;;;;;;;;;;5012214;28;20667;-82
2023/01/13 11:14:59;;;;;;;18.35;2.60;;;;;;;;;;5027726;28;20566;-81
2023/01/13 11:17:30;;;;;;;14.82;2.05;;;;;;;;;;5028298;28;20045;-81
2023/01/13 11:20:18;;;;;;;9.15;1.65;;;;;;;;;;5028860;28;20461;-82
2023/01/13 11:22:54;;;;;;;15.45;2.58;;;;;;;;;;5010092;28;20037;-81
2023/01/13 11:25:32;;;;;;;16.77;2.13;;;;;;;;;;5010522;28;20061;-82
2023/01/13 11:28:25;;;;;;;10.02;2.28;;;;;;;;;;5018603;28;20495;-81
2023/01/13 11:31:06;;;;;;;13.18;2.38;;;;;;;;;;5004678;28;20060;-81
2023/01/13 11:33:42;;;;;;;7.25;2.42;;;;;;;;;;5028513;28;20049;-81
2023/01/13 11:36:14;;;;;;;9.82;1.50;;;;;;;;;;4993314;28;20038;-82
2023/01/13 11:38:53;;;;;;;11.13;1.92;;;;;;;;;;4990583;28;20038;-82
2023/01/13 11:41:41;;;;;;;10.93;1.63;;;;;;;;;;5001803;28;20188;-81
2023/01/13 11:44:21;;;;;;;15.52;2.30;;;;;;;;;;5019786;28;20069;-80
2023/01/13 11:46:52;;;;;;;10.05;1.98;;;;;;;;;;5021782;28;20045;-80
2023/01/13 11:49:27;;;;;;;10.18;2.03;;;;;;;;;;4990581;28;20435;-80
2023/01/13 11:52:05;;;;;;;13.40;2.28;;;;;;;;;;5009185;28;20596;-81
2023/01/13 11:55:05;;;;;;;20.40;2.90;;;;;;;;;;5012641;28;20045;-79
2023/01/13 11:57:46;;;;;;;14.35;2.55;;;;;;;;;;5002583;28;20044;-80
2023/01/13 12:00:42;;;;;;;12.52;2.20;;;;;;;;;;4991852;28;20039;-80
2023/01/13 12:03:32;;;;;;;14.27;1.77;;;;;;;;;;4992579;28;20419;-80
2023/01/13 12:06:23;;;;;;;12.38;2.20;;;;;;;;;;5006637;28;20266;-80
2023/01/13 12:09:21;;;;;;;11.85;1.60;;;;;;;;;;5028294;28;20049;-80
2023/01/13 12:15:14;;;;;;;16.58;2.28;;;;;;;;;;5012985;28;20434;-79
2023/01/13 12:18:05;;;;;;;13.10;1.88;;;;;;;;;;5042055;28;20049;-79
2023/01/13 12:20:49;;;;;;;8.95;1.63;;;;;;;;;;5031334;28;20084;-79
2023/01/13 12:23:42;;;;;;;8.50;1.90;;;;;;;;;;5031580;28;20099;-80
2023/01/13 12:26:14;;;;;;;16.40;2.30;;;;;;;;;;5001466;28;20088;-80
2023/01/13 12:28:49;;;;;;;16.35;2.60;;;;;;;;;;5023145;28;20280;-80
2023/01/13 12:31:17;;;;;;;13.55;2.65;;;;;;;;;;5019801;28;20021;-80
2023/01/13 12:33:55;;;;;;;13.93;1.88;;;;;;;;;;5011058;28;20049;-80
2023/01/13 12:36:43;;;;;;;13.73;2.28;;;;;;;;;;5022719;28;20384;-79
2023/01/13 12:39:16;;;;;;;10.77;2.28;;;;;;;;;;5023808;28;20119;-80
2023/01/13 12:44:34;;;;;;;11.68;2.17;;;;;;;;;;5022273;28;20040;-80
2023/01/13 12:46:59;;;;;;;17.00;2.28;;;;;;;;;;5018862;28;20258;-79
2023/01/13 12:49:31;;;;;;;11.63;1.70;;;;;;;;;;5017151;28;20030;-78
2023/01/13 12:51:56;;;;;;;10.05;2.10;;;;;;;;;;5020922;28;20398;-78
2023/01/13 12:54:54;;;;;;;8.88;1.75;;;;;;;;;;5026968;28;20045;-78
2023/01/13 12:57:22;;;;;;;7.93;1.63;;;;;;;;;;5013319;28;20598;-78
2023/01/13 12:59:59;;;;;;;9.70;2.13;;;;;;;;;;5016668;28;20068;-78
2023/01/13 13:02:27;;;;;;;8.98;2.45;;;;;;;;;;5021307;28;20057;-79
2023/01/13 13:04:55;;;;;;;10.00;2.03;;;;;;;;;;5026834;28;20041;-78
2023/01/13 13:07:32;;;;;;;11.52;1.77;;;;;;;;;;5023522;28;20069;-78
2023/01/13 13:10:16;;;;;;;9.88;2.33;;;;;;;;;;5006962;28;20022;-78
2023/01/13 13:15:28;;;;;;;13.20;2.60;;;;;;;;;;5028057;28;20040;-78
2023/01/13 13:18:22;;;;;;;8.63;1.90;;;;;;;;;;5009956;28;20056;-78
2023/01/13 13:20:55;;;;;;;8.73;1.92;;;;;;;;;;5007047;28;20034;-78
2023/01/13 13:23:42;;;;;;;9.60;2.28;;;;;;;;;;5006244;28;20084;-78
2023/01/13 13:26:18;;;;;;;11.35;2.10;;;;;;;;;;5007416;28;20042;-78
2023/01/13 13:29:14;;;;;;;9.50;1.88;;;;;;;;;;5013462;28;20519;-78
2023/01/13 13:32:09;;;;;;;15.65;2.05;;;;;;;;;;5001615;28;20046;-79
2023/01/13 13:35:04;;;;;;;10.82;2.60;;;;;;;;;;4989994;28;20037;-79
2023/01/13 13:46:45;;;;;;;16.52;3.28;;;;;;;;;;5025940;28;20482;-77
2023/01/13 13:49:15;;;;;;;7.95;1.55;;;;;;;;;;5006412;28;20092;-77
2023/01/13 13:52:09;;;;;;;9.82;2.50;;;;;;;;;;4989134;28;20068;-78
2023/01/13 13:54:38;;;;;;;8.93;2.17;;;;;;;;;;5006265;28;20069;-78
2023/01/13 13:57:04;;;;;;;9.73;2.30;;;;;;;;;;5007099;28;20459;-77
2023/01/13 13:59:32;;;;;;;16.90;3.40;;;;;;;;;;5007563;28;20558;-78
2023/01/13 14:02:00;;;;;;;13.75;2.58;;;;;;;;;;5005061;28;20132;-78
2023/01/13 14:04:28;;;;;;;12.20;2.20;;;;;;;;;;5004464;28;20034;-78
2023/01/13 14:06:57;;;;;;;9.10;1.35;;;;;;;;;;5006684;28;20034;-78
2023/01/13 14:09:25;;;;;;;8.27;1.77;;;;;;;;;;5006495;28;20030;-78
2023/01/13 14:11:59;;;;;;;12.57;1.95;;;;;;;;;;5005771;28;20053;-78
2023/01/13 14:14:25;;;;;;;10.70;2.40;;;;;;;;;;5006529;28;20057;-78
2023/01/13 14:16:51;;;;;;;15.80;2.53;;;;;;;;;;4993913;28;20092;-78
2023/01/13 14:19:27;;;;;;;8.20;1.83;;;;;;;;;;5005201;28;20055;-78
2023/01/13 14:21:53;;;;;;;10.02;2.03;;;;;;;;;;5022427;28;20029;-79
2023/01/13 14:24:21;;;;;;;11.40;1.90;;;;;;;;;;5005106;28;20084;-78
2023/01/13 14:26:51;;;;;;;9.90;2.30;;;;;;;;;;5020130;28;20034;-77
2023/01/13 14:29:21;;;;;;;11.18;1.98;;;;;;;;;;5025632;28;20128;-81
2023/01/13 14:31:48;;;;;;;12.45;2.20;;;;;;;;;;5019577;28;20029;-79
2023/01/13 14:34:14;;;;;;;13.75;1.92;;;;;;;;;;5029184;28;20740;-85
2023/01/13 14:36:40;;;;;;;21.38;2.78;;;;;;;;;;5048459;28;20651;-81
2023/01/13 14:39:06;;;;;;;8.85;1.48;;;;;;;;;;5042756;28;20033;-80
2023/01/13 14:41:40;;;;;;;12.35;2.20;;;;;;;;;;5041231;28;20059;-79
2023/01/13 14:44:14;;;;;;;11.75;2.10;;;;;;;;;;5044579;28;20128;-80
2023/01/13 14:46:42;;;;;;;10.07;2.35;;;;;;;;;;5040610;28;20111;-79
2023/01/13 14:49:33;;;;;;;9.38;2.70;;;;;;;;;;5043901;28;20032;-79
2023/01/13 14:52:05;;;;;;;10.75;1.83;;;;;;;;;;5037232;28;20033;-80
2023/01/13 14:54:40;;;;;;;12.45;2.25;;;;;;;;;;5018975;28;20052;-80
2023/01/13 14:57:23;;;;;;;8.13;1.48;;;;;;;;;;5039557;28;20044;-80
2023/01/13 15:00:12;;;;;;;14.50;2.42;;;;;;;;;;5038441;28;20206;-80
2023/01/13 15:02:56;;;;;;;13.07;1.58;;;;;;;;;;5034610;28;20617;-79
2023/01/13 15:05:25;;;;;;;12.85;1.83;;;;;;;;;;5035264;28;20037;-79
2023/01/13 15:08:10;;;;;;;10.35;1.75;;;;;;;;;;5034694;28;20042;-79
2023/01/13 15:10:51;;;;;;;15.98;3.22;;;;;;;;;;5025567;28;20041;-79
2023/01/13 15:13:34;;;;;;;8.82;1.88;;;;;;;;;;5035232;28;20021;-79
2023/01/13 15:16:03;;;;;;;9.90;1.53;;;;;;;;;;5018319;28;20025;-77
2023/01/13 15:18:28;;;;;;;9.75;1.70;;;;;;;;;;5001884;28;20751;-80
2023/01/13 15:20:53;;;;;;;12.10;1.98;;;;;;;;;;5002028;28;20588;-80
2023/01/13 15:23:19;;;;;;;11.32;1.58;;;;;;;;;;5024341;28;20215;-79
2023/01/13 15:25:45;;;;;;;16.05;1.95;;;;;;;;;;5019420;28;20059;-79
2023/01/13 15:28:31;;;;;;;8.77;1.58;;;;;;;;;;5019280;28;20029;-80
2023/01/13 15:31:02;;;;;;;15.00;2.25;;;;;;;;;;5014185;28;20029;-80
2023/01/13 15:33:28;;;;;;;10.73;1.73;;;;;;;;;;5019915;28;20732;-80
2023/01/13 15:35:53;;;;;;;9.82;2.08;;;;;;;;;;5018820;28;20033;-80
2023/01/13 15:38:21;;;;;;;8.35;1.67;;;;;;;;;;5003001;28;21025;-80
2023/01/13 15:40:50;;;;;;;11.77;2.72;;;;;;;;;;5020931;28;20039;-78
2023/01/13 15:48:48;;;;;;;16.88;2.55;;;;;;;;;;4990659;28;20251;-79
2023/01/13 15:51:13;;;;;;;20.77;2.35;;;;;;;;;;4984135;28;20575;-79
2023/01/13 15:53:39;;;;;;;15.35;1.92;;;;;;;;;;4995070;28;20032;-79
2023/01/13 15:56:14;;;;;;;6.80;1.75;;;;;;;;;;4996243;28;20040;-79
2023/01/13 15:58:40;;;;;;;19.52;3.13;;;;;;;;;;5004437;28;20033;-79
2023/01/13 16:01:05;;;;;;;16.75;2.65;;;;;;;;;;5000954;28;20166;-80
2023/01/13 16:03:30;;;;;;;10.32;2.10;;;;;;;;;;5002771;28;20106;-79
2023/01/13 16:05:56;;;;;;;14.82;2.55;;;;;;;;;;5019063;28;20787;-79
2023/01/13 16:08:22;;;;;;;17.27;3.05;;;;;;;;;;5018946;28;20037;-79
2023/01/13 16:10:48;;;;;;;14.65;2.00;;;;;;;;;;5002888;28;20037;-79
2023/01/13 16:13:15;;;;;;;8.32;1.70;;;;;;;;;;5016387;28;20391;-79